sensor_id;sensor_type;location;lat;lon;timestamp;pressure;altitude;pressure_sealevel;temperature;humidity
35989;BME280;22064;42.672;23.282;2023-09-19T00:00:39;95036.72;;;15.33;100.00
35989;BME280;22064;42.672;23.282;2023-09-19T00:03:07;95033.53;;;15.06;100.00
35989;BME280;22064;42.672;23.282;2023-09-19T00:05:36;95030.38;;;14.93;100.00
35989;BME280;22064;42.672;23.282;2023-09-19T00:08:04;95041.91;;;14.97;100.00
35989;BME280;22064;42.672;23.282;2023-09-19T00:10:31;95046.13;;;15.04;100.00
35989;BME280;22064;42.672;23.282;2023-09-19T00:13:01;95046.66;;;15.11;100.00
35989;BME280;22064;42.672;23.282;2023-09-19T00:15:48;95044.31;;;15.14;100.00
35989;BME280;22064;42.672;23.282;2023-09-19T00:18:14;95036.72;;;15.18;100.00
35989;BME280;22064;42.672;23.282;2023-09-19T00:20:44;95032.78;;;15.31;100.00
35989;BME280;22064;42.672;23.282;2023-09-19T00:23:13;95007.06;;;15.22;100.00
35989;BME280;22064;42.672;23.282;2023-09-19T00:25:39;95035.66;;;15.44;100.00
35989;BME280;22064;42.672;23.282;2023-09-19T00:28:06;95026.22;;;15.43;100.00
35989;BME280;22064;42.672;23.282;2023-09-19T00:30:35;95023.09;;;15.36;100.00
35989;BME280;22064;42.672;23.282;2023-09-19T00:33:04;95027.81;;;15.34;100.00
35989;BME280;22064;42.672;23.282;2023-09-19T00:35:33;95023.34;;;15.40;100.00
35989;BME280;22064;42.672;23.282;2023-09-19T00:37:59;94988.19;;;15.31;100.00
35989;BME280;22064;42.672;23.282;2023-09-19T00:40:25;95006.03;;;15.44;100.00
35989;BME280;22064;42.672;23.282;2023-09-19T00:42:52;95006.78;;;15.14;100.00
35989;BME280;22064;42.672;23.282;2023-09-19T00:45:22;95024.59;;;14.86;100.00
35989;BME280;22064;42.672;23.282;2023-09-19T00:47:50;95021.16;;;14.75;100.00
35989;BME280;22064;42.672;23.282;2023-09-19T00:50:22;95022.44;;;14.68;100.00
35989;BME280;22064;42.672;23.282;2023-09-19T00:52:53;95020.03;;;14.56;100.00
35989;BME280;22064;42.672;23.282;2023-09-19T00:55:24;95027.88;;;14.51;100.00
35989;BME280;22064;42.672;23.282;2023-09-19T00:57:50;95022.91;;;14.54;100.00
35989;BME280;22064;42.672;23.282;2023-09-19T01:00:16;95025.72;;;14.48;100.00
35989;BME280;22064;42.672;23.282;2023-09-19T01:02:45;95022.41;;;14.58;100.00
35989;BME280;22064;42.672;23.282;2023-09-19T01:05:12;95025.59;;;14.75;100.00
35989;BME280;22064;42.672;23.282;2023-09-19T01:07:39;95018.00;;;14.78;100.00
35989;BME280;22064;42.672;23.282;2023-09-19T01:10:10;95011.97;;;14.78;100.00
35989;BME280;22064;42.672;23.282;2023-09-19T01:15:28;95027.72;;;14.88;100.00
35989;BME280;22064;42.672;23.282;2023-09-19T01:26:05;95035.63;;;14.30;100.00
35989;BME280;22064;42.672;23.282;2023-09-19T01:28:53;95032.75;;;14.27;100.00
35989;BME280;22064;42.672;23.282;2023-09-19T01:31:21;95011.94;;;14.10;100.00
35989;BME280;22064;42.672;23.282;2023-09-19T01:34:00;95021.41;;;14.16;100.00
35989;BME280;22064;42.672;23.282;2023-09-19T01:36:28;95027.94;;;14.14;100.00
35989;BME280;22064;42.672;23.282;2023-09-19T01:38:55;95014.25;;;14.01;100.00
35989;BME280;22064;42.672;23.282;2023-09-19T01:41:33;95023.72;;;14.02;100.00
35989;BME280;22064;42.672;23.282;2023-09-19T01:44:06;95024.44;;;13.93;100.00
35989;BME280;22064;42.672;23.282;2023-09-19T01:46:39;95031.19;;;13.89;100.00
35989;BME280;22064;42.672;23.282;2023-09-19T01:54:50;95029.19;;;13.63;100.00
35989;BME280;22064;42.672;23.282;2023-09-19T01:57:48;95032.38;;;13.66;100.00
35989;BME280;22064;42.672;23.282;2023-09-19T02:00:18;95034.16;;;13.60;100.00
35989;BME280;22064;42.672;23.282;2023-09-19T02:02:47;95011.28;;;13.45;100.00
35989;BME280;22064;42.672;23.282;2023-09-19T02:05:13;95033.59;;;13.58;100.00
35989;BME280;22064;42.672;23.282;2023-09-19T02:07:48;95042.78;;;13.60;100.00
35989;BME280;22064;42.672;23.282;2023-09-19T02:10:14;95035.03;;;13.71;100.00
35989;BME280;22064;42.672;23.282;2023-09-19T02:12:40;95037.16;;;13.74;100.00
35989;BME280;22064;42.672;23.282;2023-09-19T02:15:06;95030.41;;;13.88;100.00
35989;BME280;22064;42.672;23.282;2023-09-19T02:17:32;95022.72;;;13.71;100.00
35989;BME280;22064;42.672;23.282;2023-09-19T02:19:58;95028.47;;;13.68;100.00
35989;BME280;22064;42.672;23.282;2023-09-19T02:22:26;94997.81;;;13.63;100.00
35989;BME280;22064;42.672;23.282;2023-09-19T02:24:53;95024.69;;;13.91;100.00
35989;BME280;22064;42.672;23.282;2023-09-19T02:27:19;95018.19;;;13.99;100.00
35989;BME280;22064;42.672;23.282;2023-09-19T02:29:45;95019.81;;;14.05;100.00
35989;BME280;22064;42.672;23.282;2023-09-19T02:32:11;95007.63;;;13.83;100.00
35989;BME280;22064;42.672;23.282;2023-09-19T02:34:37;95012.38;;;13.86;100.00
35989;BME280;22064;42.672;23.282;2023-09-19T02:37:07;95013.66;;;13.84;100.00
35989;BME280;22064;42.672;23.282;2023-09-19T02:39:36;95004.56;;;13.97;100.00
35989;BME280;22064;42.672;23.282;2023-09-19T02:42:02;95014.31;;;14.12;100.00
35989;BME280;22064;42.672;23.282;2023-09-19T02:44:30;94998.53;;;14.01;100.00
35989;BME280;22064;42.672;23.282;2023-09-19T02:46:55;94999.88;;;13.99;100.00
35989;BME280;22064;42.672;23.282;2023-09-19T02:49:23;94995.06;;;13.80;100.00
35989;BME280;22064;42.672;23.282;2023-09-19T02:51:49;94992.97;;;13.88;100.00
35989;BME280;22064;42.672;23.282;2023-09-19T02:54:15;94998.03;;;13.99;100.00
35989;BME280;22064;42.672;23.282;2023-09-19T02:56:41;94979.59;;;13.79;100.00
35989;BME280;22064;42.672;23.282;2023-09-19T02:59:07;94995.88;;;13.91;100.00
35989;BME280;22064;42.672;23.282;2023-09-19T03:01:36;94993.81;;;13.98;100.00
35989;BME280;22064;42.672;23.282;2023-09-19T03:04:05;94977.59;;;13.96;100.00
35989;BME280;22064;42.672;23.282;2023-09-19T03:06:35;94978.94;;;14.04;100.00
35989;BME280;22064;42.672;23.282;2023-09-19T03:09:01;94971.84;;;14.04;100.00
35989;BME280;22064;42.672;23.282;2023-09-19T03:11:28;94944.59;;;13.95;100.00
35989;BME280;22064;42.672;23.282;2023-09-19T03:13:57;94974.50;;;14.09;100.00
35989;BME280;22064;42.672;23.282;2023-09-19T03:16:23;94982.28;;;13.94;100.00
35989;BME280;22064;42.672;23.282;2023-09-19T03:18:53;94984.31;;;13.82;100.00
35989;BME280;22064;42.672;23.282;2023-09-19T03:21:21;94981.75;;;13.92;100.00
35989;BME280;22064;42.672;23.282;2023-09-19T03:23:47;94972.22;;;13.71;100.00
35989;BME280;22064;42.672;23.282;2023-09-19T03:26:14;94983.25;;;13.83;100.00
35989;BME280;22064;42.672;23.282;2023-09-19T03:28:42;94969.34;;;13.72;100.00
35989;BME280;22064;42.672;23.282;2023-09-19T03:31:09;94973.50;;;13.68;100.00
35989;BME280;22064;42.672;23.282;2023-09-19T03:33:36;94980.56;;;13.68;100.00
35989;BME280;22064;42.672;23.282;2023-09-19T03:36:04;94984.56;;;13.38;100.00
35989;BME280;22064;42.672;23.282;2023-09-19T03:38:30;94992.56;;;13.26;100.00
35989;BME280;22064;42.672;23.282;2023-09-19T03:40:57;94999.03;;;13.24;100.00
35989;BME280;22064;42.672;23.282;2023-09-19T03:43:23;95002.41;;;13.19;100.00
35989;BME280;22064;42.672;23.282;2023-09-19T03:45:49;95001.34;;;13.15;100.00
35989;BME280;22064;42.672;23.282;2023-09-19T03:48:17;95005.69;;;13.04;100.00
35989;BME280;22064;42.672;23.282;2023-09-19T03:50:43;95006.16;;;13.01;100.00
35989;BME280;22064;42.672;23.282;2023-09-19T03:53:09;95010.69;;;13.11;100.00
35989;BME280;22064;42.672;23.282;2023-09-19T03:55:35;95013.56;;;13.09;100.00
35989;BME280;22064;42.672;23.282;2023-09-19T03:58:02;95005.69;;;13.04;100.00
35989;BME280;22064;42.672;23.282;2023-09-19T04:00:28;95005.19;;;13.07;100.00
35989;BME280;22064;42.672;23.282;2023-09-19T04:02:55;95004.25;;;13.18;100.00
35989;BME280;22064;42.672;23.282;2023-09-19T04:05:24;95003.50;;;13.23;100.00
35989;BME280;22064;42.672;23.282;2023-09-19T04:07:50;95018.47;;;13.28;100.00
35989;BME280;22064;42.672;23.282;2023-09-19T04:10:17;95015.72;;;13.17;100.00
35989;BME280;22064;42.672;23.282;2023-09-19T04:12:52;95034.13;;;13.01;100.00
35989;BME280;22064;42.672;23.282;2023-09-19T04:15:19;95032.56;;;13.00;100.00
35989;BME280;22064;42.672;23.282;2023-09-19T04:17:49;95025.03;;;13.03;100.00
35989;BME280;22064;42.672;23.282;2023-09-19T04:20:16;95027.16;;;13.11;100.00
35989;BME280;22064;42.672;23.282;2023-09-19T04:22:43;95020.88;;;13.34;100.00
35989;BME280;22064;42.672;23.282;2023-09-19T04:25:09;95009.00;;;13.54;100.00
35989;BME280;22064;42.672;23.282;2023-09-19T04:27:35;95011.78;;;13.79;100.00
35989;BME280;22064;42.672;23.282;2023-09-19T04:30:02;94998.25;;;13.93;100.00
35989;BME280;22064;42.672;23.282;2023-09-19T04:32:29;95003.63;;;14.18;100.00
35989;BME280;22064;42.672;23.282;2023-09-19T04:34:57;95007.09;;;14.34;100.00
35989;BME280;22064;42.672;23.282;2023-09-19T04:37:26;95002.44;;;14.46;100.00
35989;BME280;22064;42.672;23.282;2023-09-19T04:39:52;94998.84;;;14.73;100.00
35989;BME280;22064;42.672;23.282;2023-09-19T04:42:18;94981.03;;;14.75;100.00
35989;BME280;22064;42.672;23.282;2023-09-19T04:44:44;94987.41;;;15.05;100.00
35989;BME280;22064;42.672;23.282;2023-09-19T04:47:10;94995.53;;;15.18;100.00
35989;BME280;22064;42.672;23.282;2023-09-19T04:49:38;94994.47;;;15.35;100.00
35989;BME280;22064;42.672;23.282;2023-09-19T04:52:05;94991.59;;;15.41;100.00
35989;BME280;22064;42.672;23.282;2023-09-19T04:54:32;94989.75;;;15.47;100.00
35989;BME280;22064;42.672;23.282;2023-09-19T04:56:59;94988.69;;;15.58;100.00
35989;BME280;22064;42.672;23.282;2023-09-19T04:59:25;94972.41;;;15.56;100.00
35989;BME280;22064;42.672;23.282;2023-09-19T05:01:51;94981.63;;;15.74;100.00
35989;BME280;22064;42.672;23.282;2023-09-19T05:04:17;94987.13;;;15.78;100.00
35989;BME280;22064;42.672;23.282;2023-09-19T05:06:43;94987.88;;;15.88;100.00
35989;BME280;22064;42.672;23.282;2023-09-19T05:09:09;94989.94;;;16.07;100.00
35989;BME280;22064;42.672;23.282;2023-09-19T05:11:35;94995.38;;;16.26;100.00
35989;BME280;22064;42.672;23.282;2023-09-19T05:14:03;94994.31;;;16.37;100.00
35989;BME280;22064;42.672;23.282;2023-09-19T05:16:30;94993.00;;;16.39;100.00
35989;BME280;22064;42.672;23.282;2023-09-19T05:18:59;94981.88;;;16.53;100.00
35989;BME280;22064;42.672;23.282;2023-09-19T05:21:26;94987.56;;;16.80;100.00
35989;BME280;22064;42.672;23.282;2023-09-19T05:23:54;94990.34;;;16.99;100.00
35989;BME280;22064;42.672;23.282;2023-09-19T05:26:21;94983.78;;;16.97;100.00
35989;BME280;22064;42.672;23.282;2023-09-19T05:28:47;94989.00;;;17.02;100.00
35989;BME280;22064;42.672;23.282;2023-09-19T05:31:14;94998.91;;;17.15;100.00
35989;BME280;22064;42.672;23.282;2023-09-19T05:33:41;94979.50;;;17.40;100.00
35989;BME280;22064;42.672;23.282;2023-09-19T05:36:06;94958.25;;;17.31;100.00
35989;BME280;22064;42.672;23.282;2023-09-19T05:38:37;94979.66;;;17.54;100.00
35989;BME280;22064;42.672;23.282;2023-09-19T05:41:06;94967.38;;;17.73;100.00
35989;BME280;22064;42.672;23.282;2023-09-19T05:43:34;94976.63;;;17.42;100.00
35989;BME280;22064;42.672;23.282;2023-09-19T05:46:00;94979.81;;;17.34;100.00
35989;BME280;22064;42.672;23.282;2023-09-19T05:48:26;94982.47;;;17.63;100.00
35989;BME280;22064;42.672;23.282;2023-09-19T05:50:52;94978.84;;;17.88;100.00
35989;BME280;22064;42.672;23.282;2023-09-19T05:53:17;94977.16;;;17.97;100.00
35989;BME280;22064;42.672;23.282;2023-09-19T05:55:45;94974.53;;;17.97;100.00
35989;BME280;22064;42.672;23.282;2023-09-19T05:58:11;94979.78;;;17.68;100.00
35989;BME280;22064;42.672;23.282;2023-09-19T06:00:39;94984.28;;;17.67;100.00
35989;BME280;22064;42.672;23.282;2023-09-19T06:03:07;94972.28;;;17.85;100.00
35989;BME280;22064;42.672;23.282;2023-09-19T06:05:33;94970.66;;;17.89;100.00
35989;BME280;22064;42.672;23.282;2023-09-19T06:07:59;94967.97;;;18.18;100.00
35989;BME280;22064;42.672;23.282;2023-09-19T06:10:26;94972.44;;;18.42;100.00
35989;BME280;22064;42.672;23.282;2023-09-19T06:12:54;94967.59;;;18.73;100.00
35989;BME280;22064;42.672;23.282;2023-09-19T06:15:20;94969.25;;;18.64;100.00
35989;BME280;22064;42.672;23.282;2023-09-19T06:17:50;94961.50;;;18.54;100.00
35989;BME280;22064;42.672;23.282;2023-09-19T06:20:16;94963.41;;;18.48;100.00
35989;BME280;22064;42.672;23.282;2023-09-19T06:22:44;94970.38;;;18.82;100.00
35989;BME280;22064;42.672;23.282;2023-09-19T06:25:11;94951.19;;;18.76;100.00
35989;BME280;22064;42.672;23.282;2023-09-19T06:27:39;94959.09;;;18.95;100.00
35989;BME280;22064;42.672;23.282;2023-09-19T06:30:10;94963.72;;;19.03;100.00
35989;BME280;22064;42.672;23.282;2023-09-19T06:32:45;94963.19;;;19.39;100.00
35989;BME280;22064;42.672;23.282;2023-09-19T06:35:13;94966.66;;;19.34;100.00
35989;BME280;22064;42.672;23.282;2023-09-19T06:37:39;94964.34;;;19.33;100.00
35989;BME280;22064;42.672;23.282;2023-09-19T06:40:10;94956.56;;;19.55;100.00
35989;BME280;22064;42.672;23.282;2023-09-19T06:42:44;94967.03;;;19.28;100.00
35989;BME280;22064;42.672;23.282;2023-09-19T06:45:17;94975.81;;;19.42;100.00
35989;BME280;22064;42.672;23.282;2023-09-19T06:47:48;94966.81;;;19.76;100.00
35989;BME280;22064;42.672;23.282;2023-09-19T06:50:18;94963.91;;;19.91;100.00
35989;BME280;22064;42.672;23.282;2023-09-19T06:52:46;94974.38;;;19.96;100.00
35989;BME280;22064;42.672;23.282;2023-09-19T06:55:13;94973.31;;;19.97;100.00
35989;BME280;22064;42.672;23.282;2023-09-19T06:57:45;94979.81;;;19.39;100.00
35989;BME280;22064;42.672;23.282;2023-09-19T07:00:11;94976.19;;;19.35;100.00
35989;BME280;22064;42.672;23.282;2023-09-19T07:02:45;94980.53;;;19.26;100.00
35989;BME280;22064;42.672;23.282;2023-09-19T07:05:11;94981.09;;;19.42;100.00
35989;BME280;22064;42.672;23.282;2023-09-19T07:07:37;94982.13;;;19.60;100.00
35989;BME280;22064;42.672;23.282;2023-09-19T07:10:03;94983.47;;;19.06;100.00
35989;BME280;22064;42.672;23.282;2023-09-19T07:12:33;94975.06;;;19.23;100.00
35989;BME280;22064;42.672;23.282;2023-09-19T07:14:59;94982.25;;;19.69;100.00
35989;BME280;22064;42.672;23.282;2023-09-19T07:17:25;94974.56;;;19.86;100.00
35989;BME280;22064;42.672;23.282;2023-09-19T07:19:51;94982.44;;;20.19;100.00
35989;BME280;22064;42.672;23.282;2023-09-19T07:22:17;94984.28;;;20.32;100.00
35989;BME280;22064;42.672;23.282;2023-09-19T07:24:43;94986.75;;;20.56;100.00
35989;BME280;22064;42.672;23.282;2023-09-19T07:27:09;94982.78;;;20.81;100.00
35989;BME280;22064;42.672;23.282;2023-09-19T07:29:35;94988.47;;;21.11;100.00
35989;BME280;22064;42.672;23.282;2023-09-19T07:32:00;94996.06;;;21.26;100.00
35989;BME280;22064;42.672;23.282;2023-09-19T07:34:26;94982.41;;;20.96;100.00
35989;BME280;22064;42.672;23.282;2023-09-19T07:36:52;94978.59;;;20.66;100.00
35989;BME280;22064;42.672;23.282;2023-09-19T07:39:18;94988.97;;;20.99;100.00
35989;BME280;22064;42.672;23.282;2023-09-19T07:41:44;94979.06;;;19.99;100.00
35989;BME280;22064;42.672;23.282;2023-09-19T07:44:10;94985.28;;;19.43;100.00
35989;BME280;22064;42.672;23.282;2023-09-19T07:46:35;94982.84;;;19.47;100.00
35989;BME280;22064;42.672;23.282;2023-09-19T07:49:01;94990.19;;;19.50;100.00
35989;BME280;22064;42.672;23.282;2023-09-19T07:51:27;94980.13;;;19.19;100.00
35989;BME280;22064;42.672;23.282;2023-09-19T07:53:53;94985.53;;;19.09;100.00
35989;BME280;22064;42.672;23.282;2023-09-19T07:56:20;94984.69;;;19.13;100.00
35989;BME280;22064;42.672;23.282;2023-09-19T07:58:46;94992.47;;;19.56;100.00
35989;BME280;22064;42.672;23.282;2023-09-19T08:01:12;95003.44;;;19.96;100.00
35989;BME280;22064;42.672;23.282;2023-09-19T08:03:39;94999.25;;;20.23;100.00
35989;BME280;22064;42.672;23.282;2023-09-19T08:06:09;94977.03;;;19.64;100.00
35989;BME280;22064;42.672;23.282;2023-09-19T08:08:36;94960.28;;;19.54;100.00
35989;BME280;22064;42.672;23.282;2023-09-19T08:11:04;94968.31;;;19.96;100.00
35989;BME280;22064;42.672;23.282;2023-09-19T08:13:39;94969.88;;;20.38;100.00
35989;BME280;22064;42.672;23.282;2023-09-19T08:16:09;94970.50;;;20.85;100.00
35989;BME280;22064;42.672;23.282;2023-09-19T08:18:36;94967.88;;;21.30;100.00
35989;BME280;22064;42.672;23.282;2023-09-19T08:21:05;94964.69;;;21.64;100.00
35989;BME280;22064;42.672;23.282;2023-09-19T08:23:33;94971.38;;;21.93;100.00
35989;BME280;22064;42.672;23.282;2023-09-19T08:25:59;94959.22;;;22.23;100.00
35989;BME280;22064;42.672;23.282;2023-09-19T08:28:32;94954.72;;;22.32;100.00
35989;BME280;22064;42.672;23.282;2023-09-19T08:31:03;94963.19;;;22.52;100.00
35989;BME280;22064;42.672;23.282;2023-09-19T08:33:33;94968.38;;;22.66;100.00
35989;BME280;22064;42.672;23.282;2023-09-19T08:35:59;94964.34;;;22.68;100.00
35989;BME280;22064;42.672;23.282;2023-09-19T08:38:26;94978.59;;;22.98;100.00
35989;BME280;22064;42.672;23.282;2023-09-19T08:40:59;94962.34;;;23.09;95.61
35989;BME280;22064;42.672;23.282;2023-09-19T08:43:26;94972.66;;;23.10;93.94
35989;BME280;22064;42.672;23.282;2023-09-19T08:46:14;94956.56;;;22.98;94.28
35989;BME280;22064;42.672;23.282;2023-09-19T08:48:57;94968.69;;;22.16;100.00
35989;BME280;22064;42.672;23.282;2023-09-19T08:51:27;94953.38;;;22.52;100.00
35989;BME280;22064;42.672;23.282;2023-09-19T08:54:08;94946.50;;;22.60;100.00
35989;BME280;22064;42.672;23.282;2023-09-19T08:56:41;94946.53;;;22.77;100.00
35989;BME280;22064;42.672;23.282;2023-09-19T08:59:09;94950.59;;;22.83;100.00
35989;BME280;22064;42.672;23.282;2023-09-19T09:01:35;94952.38;;;23.05;100.00
35989;BME280;22064;42.672;23.282;2023-09-19T09:04:02;94949.22;;;22.95;99.78
35989;BME280;22064;42.672;23.282;2023-09-19T09:06:29;94961.09;;;23.15;95.12
35989;BME280;22064;42.672;23.282;2023-09-19T09:08:55;94955.28;;;23.30;93.51
35989;BME280;22064;42.672;23.282;2023-09-19T09:11:22;94948.84;;;23.57;88.95
35989;BME280;22064;42.672;23.282;2023-09-19T09:13:50;94942.56;;;23.79;85.92
35989;BME280;22064;42.672;23.282;2023-09-19T09:16:16;94948.44;;;22.94;94.74
35989;BME280;22064;42.672;23.282;2023-09-19T09:18:45;94939.69;;;23.11;94.72
35989;BME280;22064;42.672;23.282;2023-09-19T09:21:11;94941.53;;;22.10;100.00
35989;BME280;22064;42.672;23.282;2023-09-19T09:23:40;94933.53;;;22.01;100.00
35989;BME280;22064;42.672;23.282;2023-09-19T09:26:06;94925.59;;;22.50;100.00
35989;BME280;22064;42.672;23.282;2023-09-19T09:28:34;94919.97;;;22.86;100.00
35989;BME280;22064;42.672;23.282;2023-09-19T09:31:01;94931.88;;;23.15;98.72
35989;BME280;22064;42.672;23.282;2023-09-19T09:33:35;94924.34;;;23.43;94.05
35989;BME280;22064;42.672;23.282;2023-09-19T09:36:02;94911.63;;;23.66;90.56
35989;BME280;22064;42.672;23.282;2023-09-19T09:38:43;94911.44;;;23.80;89.48
35989;BME280;22064;42.672;23.282;2023-09-19T09:41:10;94900.09;;;24.00;86.55
35989;BME280;22064;42.672;23.282;2023-09-19T09:43:41;94913.97;;;24.44;80.82
35989;BME280;22064;42.672;23.282;2023-09-19T09:46:19;94914.50;;;24.79;74.82
35989;BME280;22064;42.672;23.282;2023-09-19T09:51:36;94902.94;;;24.96;71.96
35989;BME280;22064;42.672;23.282;2023-09-19T09:54:17;94893.53;;;24.57;75.31
35989;BME280;22064;42.672;23.282;2023-09-19T09:59:44;94909.16;;;25.00;72.39
35989;BME280;22064;42.672;23.282;2023-09-19T10:02:14;94897.97;;;25.28;69.72
35989;BME280;22064;42.672;23.282;2023-09-19T10:04:46;94906.72;;;25.62;65.51
35989;BME280;22064;42.672;23.282;2023-09-19T10:07:30;94882.91;;;25.44;65.62
35989;BME280;22064;42.672;23.282;2023-09-19T10:10:06;94904.44;;;25.85;63.43
35989;BME280;22064;42.672;23.282;2023-09-19T10:12:46;94899.88;;;26.10;62.84
35989;BME280;22064;42.672;23.282;2023-09-19T10:15:15;94884.88;;;26.17;62.17
35989;BME280;22064;42.672;23.282;2023-09-19T10:17:45;94864.97;;;26.15;60.78
35989;BME280;22064;42.672;23.282;2023-09-19T10:20:20;94886.06;;;26.32;59.45
35989;BME280;22064;42.672;23.282;2023-09-19T10:23:03;94900.91;;;26.05;60.01
35989;BME280;22064;42.672;23.282;2023-09-19T10:25:40;94894.56;;;25.97;60.35
35989;BME280;22064;42.672;23.282;2023-09-19T10:28:08;94891.66;;;26.15;59.45
35989;BME280;22064;42.672;23.282;2023-09-19T10:30:38;94881.66;;;26.24;58.68
35989;BME280;22064;42.672;23.282;2023-09-19T10:33:10;94883.84;;;26.34;58.55
35989;BME280;22064;42.672;23.282;2023-09-19T10:35:39;94878.88;;;26.33;59.44
35989;BME280;22064;42.672;23.282;2023-09-19T10:38:10;94887.31;;;25.98;58.80
35989;BME280;22064;42.672;23.282;2023-09-19T10:40:37;94884.16;;;25.59;60.79
35989;BME280;22064;42.672;23.282;2023-09-19T10:43:13;94888.16;;;25.53;62.46
35989;BME280;22064;42.672;23.282;2023-09-19T10:45:44;94881.66;;;25.42;63.16
35989;BME280;22064;42.672;23.282;2023-09-19T10:48:12;94881.47;;;25.14;63.39
35989;BME280;22064;42.672;23.282;2023-09-19T10:51:08;94873.03;;;24.28;73.65
35989;BME280;22064;42.672;23.282;2023-09-19T10:56:20;94860.44;;;25.21;68.87
35989;BME280;22064;42.672;23.282;2023-09-19T10:58:48;94873.94;;;25.16;66.29
35989;BME280;22064;42.672;23.282;2023-09-19T11:01:15;94860.34;;;25.42;66.12
35989;BME280;22064;42.672;23.282;2023-09-19T11:03:43;94862.91;;;25.38;64.84
35989;BME280;22064;42.672;23.282;2023-09-19T11:06:12;94845.47;;;25.07;65.04
35989;BME280;22064;42.672;23.282;2023-09-19T11:30:33;94842.47;;;26.53;58.47
35989;BME280;22064;42.672;23.282;2023-09-19T11:33:22;94845.13;;;26.93;56.00
35989;BME280;22064;42.672;23.282;2023-09-19T11:36:34;94824.91;;;27.08;53.96
35989;BME280;22064;42.672;23.282;2023-09-19T11:39:01;94829.31;;;27.16;53.97
35989;BME280;22064;42.672;23.282;2023-09-19T11:41:40;94827.31;;;27.13;54.07
35989;BME280;22064;42.672;23.282;2023-09-19T11:49:17;94813.47;;;26.79;56.18
35989;BME280;22064;42.672;23.282;2023-09-19T11:51:47;94809.88;;;27.03;55.10
35989;BME280;22064;42.672;23.282;2023-09-19T11:54:16;94805.28;;;27.16;54.94
35989;BME280;22064;42.672;23.282;2023-09-19T11:56:54;94800.69;;;27.16;54.95
35989;BME280;22064;42.672;23.282;2023-09-19T11:59:21;94793.03;;;27.15;55.28
35989;BME280;22064;42.672;23.282;2023-09-19T12:02:01;94801.41;;;27.45;53.59
35989;BME280;22064;42.672;23.282;2023-09-19T12:04:39;94802.38;;;27.09;54.14
35989;BME280;22064;42.672;23.282;2023-09-19T12:07:08;94795.16;;;27.09;54.90
35989;BME280;22064;42.672;23.282;2023-09-19T12:10:04;94791.66;;;27.37;53.98
35989;BME280;22064;42.672;23.282;2023-09-19T12:12:30;94780.53;;;27.35;53.68
35989;BME280;22064;42.672;23.282;2023-09-19T12:14:58;94786.47;;;27.44;53.63
35989;BME280;22064;42.672;23.282;2023-09-19T12:17:44;94782.63;;;27.57;53.53
35989;BME280;22064;42.672;23.282;2023-09-19T12:20:13;94777.06;;;27.50;53.12
35989;BME280;22064;42.672;23.282;2023-09-19T12:22:46;94779.94;;;27.42;52.58
35989;BME280;22064;42.672;23.282;2023-09-19T12:25:13;94768.97;;;27.31;51.69
35989;BME280;22064;42.672;23.282;2023-09-19T12:27:48;94759.53;;;27.05;52.63
35989;BME280;22064;42.672;23.282;2023-09-19T12:30:19;94761.63;;;27.12;52.21
35989;BME280;22064;42.672;23.282;2023-09-19T12:32:46;94752.16;;;27.46;50.83
35989;BME280;22064;42.672;23.282;2023-09-19T12:35:29;94745.59;;;27.59;50.42
35989;BME280;22064;42.672;23.282;2023-09-19T12:37:56;94754.03;;;27.77;50.03
35989;BME280;22064;42.672;23.282;2023-09-19T12:40:22;94755.22;;;27.96;49.93
35989;BME280;22064;42.672;23.282;2023-09-19T12:42:54;94748.03;;;28.19;48.99
35989;BME280;22064;42.672;23.282;2023-09-19T12:45:31;94749.75;;;28.27;48.21
35989;BME280;22064;42.672;23.282;2023-09-19T12:51:08;94747.53;;;27.94;49.00
35989;BME280;22064;42.672;23.282;2023-09-19T12:53:46;94755.34;;;28.03;48.58
35989;BME280;22064;42.672;23.282;2023-09-19T12:56:15;94743.88;;;27.67;49.03
35989;BME280;22064;42.672;23.282;2023-09-19T12:58:58;94739.91;;;27.61;50.04
35989;BME280;22064;42.672;23.282;2023-09-19T13:01:28;94726.81;;;27.91;49.63
35989;BME280;22064;42.672;23.282;2023-09-19T13:06:44;94731.47;;;28.49;48.58
35989;BME280;22064;42.672;23.282;2023-09-19T13:09:11;94735.56;;;28.85;47.46
35989;BME280;22064;42.672;23.282;2023-09-19T13:11:38;94728.75;;;29.11;46.70
35989;BME280;22064;42.672;23.282;2023-09-19T13:17:08;94719.78;;;29.49;45.63
35989;BME280;22064;42.672;23.282;2023-09-19T13:19:50;94722.72;;;29.93;44.73
35989;BME280;22064;42.672;23.282;2023-09-19T13:22:42;94714.31;;;29.95;44.24
35989;BME280;22064;42.672;23.282;2023-09-19T13:25:18;94711.94;;;29.90;44.55
35989;BME280;22064;42.672;23.282;2023-09-19T13:27:49;94705.03;;;29.89;44.50
35989;BME280;22064;42.672;23.282;2023-09-19T13:30:18;94704.31;;;29.92;44.63
35989;BME280;22064;42.672;23.282;2023-09-19T13:32:44;94699.13;;;30.06;44.34
35989;BME280;22064;42.672;23.282;2023-09-19T13:35:11;94700.03;;;30.18;43.70
35989;BME280;22064;42.672;23.282;2023-09-19T13:37:41;94704.16;;;30.11;43.67
35989;BME280;22064;42.672;23.282;2023-09-19T13:40:12;94701.03;;;30.36;43.08
35989;BME280;22064;42.672;23.282;2023-09-19T13:42:39;94702.38;;;30.90;42.20
35989;BME280;22064;42.672;23.282;2023-09-19T13:45:06;94702.34;;;30.87;41.93
35989;BME280;22064;42.672;23.282;2023-09-19T13:47:36;94688.66;;;31.02;41.66
35989;BME280;22064;42.672;23.282;2023-09-19T13:50:04;94697.88;;;31.01;41.97
35989;BME280;22064;42.672;23.282;2023-09-19T13:52:31;94694.78;;;30.99;41.86
35989;BME280;22064;42.672;23.282;2023-09-19T13:54:57;94680.66;;;30.69;42.42